createdAt,value
2023-09-27T00:00:56.137Z,36.67
2023-09-27T00:01:59.749Z,39.00
2023-09-27T00:03:02.636Z,40.33
2023-09-27T00:04:06.924Z,42.00
2023-09-27T00:05:10.221Z,44.00
2023-09-27T00:06:13.678Z,45.00
2023-09-27T00:07:16.637Z,45.33
2023-09-27T00:08:20.468Z,46.83
2023-09-27T00:09:24.117Z,48.67
2023-09-27T00:10:28.229Z,49.83
2023-09-27T00:11:30.437Z,50.00
2023-09-27T00:12:34.182Z,50.00
2023-09-27T00:13:36.341Z,50.00
2023-09-27T00:14:39.453Z,50.67
2023-09-27T00:15:41.632Z,50.00
2023-09-27T00:16:44.816Z,50.00
2023-09-27T00:17:48.218Z,50.00
2023-09-27T00:18:51.501Z,50.00
2023-09-27T00:19:53.733Z,49.17
2023-09-27T00:20:56.885Z,49.00
2023-09-27T00:21:59.029Z,49.00
2023-09-27T00:23:02.218Z,49.00
2023-09-27T00:24:04.727Z,49.00
2023-09-27T00:25:12.781Z,48.33
2023-09-27T00:26:15.049Z,47.83
2023-09-27T00:27:18.246Z,47.00
2023-09-27T00:28:20.394Z,47.00
2023-09-27T00:29:23.557Z,47.00
2023-09-27T00:30:25.718Z,47.00
2023-09-27T00:31:29.126Z,47.00
2023-09-27T00:32:31.620Z,47.00
2023-09-27T00:33:34.853Z,47.00
2023-09-27T00:34:37.055Z,47.83
2023-09-27T00:35:40.169Z,47.33
2023-09-27T00:36:42.367Z,46.00
2023-09-27T00:37:45.453Z,43.33
2023-09-27T00:38:47.613Z,41.00
2023-09-27T00:39:51.027Z,39.83
2023-09-27T00:40:54.622Z,39.00
2023-09-27T00:41:57.885Z,39.00
2023-09-27T00:43:00.010Z,39.33
2023-09-27T00:44:03.231Z,40.00
2023-09-27T00:45:08.239Z,40.50
2023-09-27T00:46:15.231Z,41.17
2023-09-27T00:47:17.749Z,42.00
2023-09-27T00:48:21.560Z,42.00
2023-09-27T00:49:23.766Z,42.50
2023-09-27T00:50:26.958Z,43.00
2023-09-27T00:51:29.834Z,42.17
2023-09-27T00:52:33.294Z,42.83
2023-09-27T00:53:36.328Z,43.00
2023-09-27T00:54:39.427Z,43.00
2023-09-27T00:55:42.432Z,43.00
2023-09-27T00:56:48.820Z,43.00
2023-09-27T00:57:52.021Z,43.00
2023-09-27T00:58:56.593Z,43.00
2023-09-27T00:59:59.651Z,43.33
2023-09-27T01:01:03.342Z,44.00
2023-09-27T01:02:07.346Z,44.00
2023-09-27T01:03:10.767Z,44.00
2023-09-27T01:04:14.639Z,44.00
2023-09-27T01:05:19.626Z,44.00
2023-09-27T01:06:22.113Z,44.00
2023-09-27T01:07:25.025Z,44.00
2023-09-27T01:08:28.240Z,44.00
2023-09-27T01:09:32.942Z,44.00
2023-09-27T01:10:36.718Z,44.00
2023-09-27T01:11:39.840Z,44.00
2023-09-27T01:12:44.534Z,43.50
2023-09-27T01:13:47.027Z,43.00
2023-09-27T01:14:51.966Z,43.00
2023-09-27T01:15:54.152Z,42.67
2023-09-27T01:16:57.361Z,41.83
2023-09-27T01:18:00.985Z,41.17
2023-09-27T01:19:04.195Z,42.00
2023-09-27T01:20:07.727Z,42.00
2023-09-27T01:21:11.070Z,43.00
2023-09-27T01:22:13.226Z,44.00
2023-09-27T01:23:17.804Z,44.17
2023-09-27T01:24:20.193Z,45.17
2023-09-27T01:25:23.518Z,46.67
2023-09-27T01:26:27.034Z,48.50
2023-09-27T01:27:30.603Z,49.67
2023-09-27T01:28:33.096Z,50.00
2023-09-27T01:29:36.253Z,50.83
2023-09-27T01:30:39.302Z,51.00
2023-09-27T01:31:42.638Z,51.00
2023-09-27T01:32:44.909Z,51.00
2023-09-27T01:33:48.121Z,51.33
2023-09-27T01:34:50.300Z,52.33
2023-09-27T01:35:55.282Z,53.67
2023-09-27T01:36:58.972Z,54.83
2023-09-27T01:38:02.479Z,54.67
2023-09-27T01:39:08.269Z,55.00
2023-09-27T01:40:15.890Z,55.50
2023-09-27T01:41:19.253Z,56.83
2023-09-27T01:42:22.423Z,57.00
2023-09-27T01:43:24.666Z,57.00
2023-09-27T01:44:27.891Z,58.00
2023-09-27T01:45:31.344Z,58.00
2023-09-27T01:46:34.497Z,59.00
2023-09-27T01:47:36.686Z,59.83
2023-09-27T01:48:40.669Z,60.67
2023-09-27T01:49:43.282Z,61.33
2023-09-27T01:50:46.600Z,62.33
2023-09-27T01:51:50.291Z,64.33
2023-09-27T01:52:53.514Z,65.50
2023-09-27T01:53:55.701Z,67.50
2023-09-27T01:55:00.276Z,70.50
2023-09-27T01:56:03.822Z,74.67
2023-09-27T01:57:07.003Z,81.83
2023-09-27T01:58:09.334Z,81.83
2023-09-27T01:59:12.592Z,78.83
2023-09-27T02:00:16.344Z,77.33
2023-09-27T02:01:19.556Z,76.50
2023-09-27T02:02:21.798Z,76.00
2023-09-27T02:03:25.121Z,76.00
2023-09-27T02:04:27.316Z,76.00
2023-09-27T02:05:31.859Z,76.00
2023-09-27T02:06:34.163Z,76.00
2023-09-27T02:07:39.354Z,75.67
2023-09-27T02:08:41.570Z,75.00
2023-09-27T02:09:44.735Z,75.00
2023-09-27T02:10:50.788Z,74.33
2023-09-27T02:11:53.909Z,72.67
2023-09-27T02:12:56.108Z,71.83
2023-09-27T02:13:59.422Z,72.33
2023-09-27T02:15:01.709Z,72.17
2023-09-27T02:16:05.011Z,72.00
2023-09-27T02:17:09.101Z,72.00
2023-09-27T02:18:12.889Z,71.50
2023-09-27T02:19:15.139Z,71.00
2023-09-27T02:20:20.207Z,70.50
2023-09-27T02:21:22.482Z,70.00
2023-09-27T02:22:25.615Z,70.00
2023-09-27T02:23:28.480Z,70.00
2023-09-27T02:24:30.742Z,70.50
2023-09-27T02:25:34.020Z,71.83
2023-09-27T02:26:37.541Z,74.33
2023-09-27T02:27:40.644Z,76.33
2023-09-27T02:28:44.371Z,77.17
2023-09-27T02:29:46.525Z,78.00
2023-09-27T02:30:49.642Z,78.00
2023-09-27T02:31:51.855Z,78.00
2023-09-27T02:32:55.172Z,79.83
2023-09-27T02:33:58.033Z,90.83
2023-09-27T02:35:00.546Z,89.33
2023-09-27T02:36:03.692Z,87.50
2023-09-27T02:37:06.273Z,86.50
2023-09-27T02:38:10.317Z,85.67
2023-09-27T02:39:12.597Z,84.67
2023-09-27T02:40:15.869Z,83.50
2023-09-27T02:41:18.054Z,82.83
2023-09-27T02:42:22.631Z,82.00
2023-09-27T02:43:24.869Z,81.50
2023-09-27T02:44:28.536Z,80.83
2023-09-27T02:45:30.706Z,79.83
2023-09-27T02:46:33.959Z,78.67
2023-09-27T02:47:36.718Z,77.00
2023-09-27T02:48:40.012Z,75.33
2023-09-27T02:49:42.220Z,74.33
2023-09-27T02:50:49.949Z,73.67
2023-09-27T02:51:53.206Z,71.83
2023-09-27T02:52:56.409Z,67.83
2023-09-27T02:53:58.639Z,63.00
2023-09-27T02:55:00.872Z,59.83
2023-09-27T02:56:06.357Z,59.00
2023-09-27T02:57:08.728Z,59.00
2023-09-27T02:58:13.254Z,59.00
2023-09-27T02:59:15.501Z,57.50
2023-09-27T03:00:19.921Z,54.83
2023-09-27T03:01:22.490Z,54.00
2023-09-27T03:02:26.048Z,54.00
2023-09-27T03:03:28.982Z,54.00
2023-09-27T03:04:33.057Z,54.00
2023-09-27T03:05:36.393Z,54.67
2023-09-27T03:06:40.882Z,55.17
2023-09-27T03:07:45.924Z,56.17
2023-09-27T03:08:49.474Z,57.50
2023-09-27T03:09:51.836Z,59.33
2023-09-27T03:10:54.980Z,60.50
2023-09-27T03:11:57.109Z,61.50
2023-09-27T03:13:00.185Z,62.50
2023-09-27T03:14:04.884Z,63.67
2023-09-27T03:15:12.689Z,65.50
2023-09-27T03:16:16.421Z,67.83
2023-09-27T03:17:18.586Z,70.50
2023-09-27T03:18:20.806Z,72.67
2023-09-27T03:19:24.211Z,73.17
2023-09-27T03:20:26.513Z,75.17
2023-09-27T03:21:30.832Z,78.50
2023-09-27T03:22:33.037Z,81.33
2023-09-27T03:23:36.242Z,82.00
2023-09-27T03:24:39.603Z,82.00
2023-09-27T03:25:42.805Z,82.00
2023-09-27T03:26:44.941Z,82.33
2023-09-27T03:27:48.811Z,83.67
2023-09-27T03:28:51.941Z,86.33
2023-09-27T03:29:57.091Z,89.17
2023-09-27T03:30:59.227Z,92.50
2023-09-27T03:32:02.482Z,93.00
2023-09-27T03:33:04.929Z,92.67
2023-09-27T03:34:08.085Z,92.00
2023-09-27T03:35:10.692Z,92.00
2023-09-27T03:36:13.978Z,91.50
2023-09-27T03:37:17.093Z,91.00
2023-09-27T03:38:19.251Z,90.00
2023-09-27T03:39:23.615Z,89.50
2023-09-27T03:40:25.847Z,89.00
2023-09-27T03:41:29.043Z,88.33
2023-09-27T03:42:31.333Z,88.17
2023-09-27T03:43:34.552Z,89.33
2023-09-27T03:44:36.977Z,91.00
2023-09-27T03:45:41.522Z,93.33
2023-09-27T03:46:44.878Z,94.17
2023-09-27T03:47:49.336Z,96.83
2023-09-27T03:48:51.942Z,107.67
2023-09-27T03:49:55.270Z,120.67
2023-09-27T03:50:57.512Z,127.17
2023-09-27T03:52:00.620Z,118.83
2023-09-27T03:53:02.868Z,115.33
2023-09-27T03:54:06.515Z,114.33
2023-09-27T03:55:09.249Z,115.00
2023-09-27T03:56:12.386Z,115.17
2023-09-27T03:57:14.526Z,116.33
2023-09-27T03:58:17.725Z,117.83
2023-09-27T03:59:20.227Z,120.17
2023-09-27T04:00:23.650Z,123.33
2023-09-27T04:01:27.320Z,124.83
2023-09-27T04:02:32.371Z,125.17
2023-09-27T04:03:34.735Z,124.67
2023-09-27T04:04:37.874Z,123.50
2023-09-27T04:05:40.221Z,122.83
2023-09-27T04:06:43.755Z,122.00
2023-09-27T04:07:45.922Z,121.50
2023-09-27T04:08:49.056Z,120.83
2023-09-27T04:09:51.273Z,119.67
2023-09-27T04:10:54.426Z,116.33
2023-09-27T04:11:56.973Z,105.67
2023-09-27T04:13:00.113Z,95.17
2023-09-27T04:14:02.456Z,93.17
2023-09-27T04:15:08.041Z,94.33
2023-09-27T04:16:11.252Z,94.67
2023-09-27T04:17:14.812Z,93.00
2023-09-27T04:18:18.088Z,94.17
2023-09-27T04:19:20.397Z,160.50
2023-09-27T04:20:24.186Z,173.33
2023-09-27T04:21:26.438Z,134.00
2023-09-27T04:22:29.789Z,129.17
2023-09-27T04:23:32.020Z,121.50
2023-09-27T04:24:35.161Z,117.67
2023-09-27T04:25:37.347Z,117.00
2023-09-27T04:26:40.534Z,117.17
2023-09-27T04:27:44.403Z,120.83
2023-09-27T04:28:47.627Z,122.00
2023-09-27T04:29:51.884Z,122.00
2023-09-27T04:30:55.072Z,123.00
2023-09-27T04:31:57.955Z,124.83
2023-09-27T04:33:02.513Z,124.67
2023-09-27T04:34:05.799Z,122.17
2023-09-27T04:35:10.818Z,117.50
2023-09-27T04:36:16.891Z,114.33
2023-09-27T04:37:20.000Z,114.00
2023-09-27T04:38:22.590Z,114.00
2023-09-27T04:39:28.471Z,114.00
2023-09-27T04:40:30.658Z,114.00
2023-09-27T04:41:34.414Z,114.00
2023-09-27T04:42:36.674Z,114.00
2023-09-27T04:43:39.826Z,114.00
2023-09-27T04:44:42.088Z,114.67
2023-09-27T04:45:45.380Z,127.67
2023-09-27T04:46:47.602Z,128.17
2023-09-27T04:47:51.105Z,127.00
2023-09-27T04:48:54.839Z,127.00
2023-09-27T04:49:58.165Z,128.00
2023-09-27T04:51:00.730Z,127.83
2023-09-27T04:52:03.924Z,128.33
2023-09-27T04:53:06.425Z,127.83
2023-09-27T04:54:09.580Z,126.00
2023-09-27T04:55:13.905Z,126.50
2023-09-27T04:56:17.271Z,126.67
2023-09-27T04:57:21.013Z,123.67
2023-09-27T04:58:24.302Z,122.00
2023-09-27T04:59:26.583Z,122.00
2023-09-27T05:00:29.991Z,122.17
2023-09-27T05:01:32.261Z,161.50
2023-09-27T05:02:35.603Z,178.50
2023-09-27T05:03:39.060Z,177.33
2023-09-27T05:04:43.635Z,213.17
2023-09-27T05:05:45.787Z,176.67
2023-09-27T05:06:49.757Z,202.33
2023-09-27T05:07:52.079Z,180.33
2023-09-27T05:08:56.001Z,169.50
2023-09-27T05:09:58.204Z,144.67
2023-09-27T05:11:01.364Z,157.33
2023-09-27T05:12:04.625Z,157.83
2023-09-27T05:13:07.773Z,154.00
2023-09-27T05:14:10.113Z,141.17
2023-09-27T05:15:13.308Z,138.00
2023-09-27T05:16:15.988Z,141.17
2023-09-27T05:17:19.280Z,141.33
2023-09-27T05:18:23.646Z,142.00
2023-09-27T05:19:26.898Z,139.17
2023-09-27T05:20:30.542Z,149.83
2023-09-27T05:21:33.666Z,163.00
2023-09-27T05:22:36.080Z,170.33
2023-09-27T05:23:39.304Z,167.00
2023-09-27T05:24:41.525Z,161.50
2023-09-27T05:25:45.212Z,158.50
2023-09-27T05:26:47.488Z,151.33
2023-09-27T05:27:50.679Z,145.50
2023-09-27T05:28:53.049Z,147.33
2023-09-27T05:29:55.598Z,158.67
2023-09-27T05:30:58.855Z,162.33
2023-09-27T05:32:01.248Z,158.67
2023-09-27T05:33:05.537Z,151.83
2023-09-27T05:34:08.335Z,150.00
2023-09-27T05:35:12.159Z,151.50
2023-09-27T05:36:15.982Z,164.50
2023-09-27T05:37:19.148Z,177.33
2023-09-27T05:38:24.554Z,199.33
2023-09-27T05:39:28.006Z,200.17
2023-09-27T05:40:30.240Z,182.17
2023-09-27T05:41:33.510Z,180.33
2023-09-27T05:42:36.710Z,182.83
2023-09-27T05:43:39.934Z,233.83
2023-09-27T05:44:42.095Z,204.67
2023-09-27T05:45:47.511Z,188.83
2023-09-27T05:46:49.796Z,178.83
2023-09-27T05:47:52.140Z,168.50
2023-09-27T05:48:56.033Z,158.50
2023-09-27T05:49:58.668Z,178.83
2023-09-27T05:51:01.037Z,187.83
2023-09-27T05:52:06.805Z,178.33
2023-09-27T05:53:09.109Z,188.50
2023-09-27T05:54:12.374Z,187.33
2023-09-27T05:55:15.695Z,180.33
2023-09-27T05:56:18.942Z,186.00
2023-09-27T05:57:22.804Z,178.67
2023-09-27T05:58:25.005Z,140.50
2023-09-27T05:59:28.196Z,137.00
2023-09-27T06:00:38.828Z,148.67
2023-09-27T06:01:47.674Z,146.67
2023-09-27T06:02:49.896Z,165.17
2023-09-27T06:03:53.195Z,156.83
2023-09-27T06:04:55.415Z,148.50
2023-09-27T06:05:57.789Z,172.50
2023-09-27T06:07:01.029Z,163.67
2023-09-27T06:08:05.019Z,156.83
2023-09-27T06:09:10.465Z,181.83
2023-09-27T06:10:12.686Z,175.83
2023-09-27T06:11:15.859Z,149.00
2023-09-27T06:12:18.087Z,129.17
2023-09-27T06:13:21.348Z,126.17
2023-09-27T06:14:23.667Z,139.67
2023-09-27T06:15:27.415Z,137.67
2023-09-27T06:16:29.754Z,121.50
2023-09-27T06:17:32.251Z,126.67
2023-09-27T06:18:35.525Z,146.00
2023-09-27T06:19:38.807Z,160.83
2023-09-27T06:20:42.391Z,139.17
2023-09-27T06:21:44.600Z,131.33
2023-09-27T06:22:50.038Z,195.67
2023-09-27T06:23:53.860Z,171.67
2023-09-27T06:24:57.045Z,149.33
2023-09-27T06:25:59.252Z,133.83
2023-09-27T06:27:02.548Z,131.83
2023-09-27T06:28:05.575Z,120.67
2023-09-27T06:29:10.295Z,124.00
2023-09-27T06:30:14.000Z,128.33
2023-09-27T06:31:17.213Z,127.50
2023-09-27T06:32:19.668Z,139.67
2023-09-27T06:33:23.010Z,141.17
2023-09-27T06:34:25.380Z,124.17
2023-09-27T06:35:28.705Z,121.67
2023-09-27T06:36:35.696Z,144.83
2023-09-27T06:37:39.052Z,157.83
2023-09-27T06:38:42.467Z,171.17
2023-09-27T06:39:48.450Z,162.00
2023-09-27T06:40:50.666Z,155.33
2023-09-27T06:41:54.097Z,152.17
2023-09-27T06:42:56.913Z,174.33
2023-09-27T06:44:01.731Z,170.83
2023-09-27T06:45:05.278Z,160.33
2023-09-27T06:46:11.764Z,135.00
2023-09-27T06:47:14.243Z,135.17
2023-09-27T06:48:19.772Z,138.83
2023-09-27T06:49:21.948Z,130.50
2023-09-27T06:50:25.249Z,105.83
2023-09-27T06:51:27.915Z,99.33
2023-09-27T06:52:31.392Z,105.83
2023-09-27T06:53:34.246Z,152.17
2023-09-27T06:54:37.717Z,147.83
2023-09-27T06:55:41.289Z,137.33
2023-09-27T06:56:44.724Z,134.83
2023-09-27T06:57:49.001Z,132.33
2023-09-27T06:58:52.700Z,169.17
2023-09-27T06:59:55.052Z,134.50
2023-09-27T07:00:58.279Z,99.67
2023-09-27T07:02:00.709Z,111.50
2023-09-27T07:03:04.307Z,112.00
2023-09-27T07:04:07.342Z,117.83
2023-09-27T07:05:10.171Z,106.33
2023-09-27T07:06:13.444Z,121.83
2023-09-27T07:07:15.636Z,119.67
2023-09-27T07:08:18.991Z,112.50
2023-09-27T07:09:22.075Z,87.67
2023-09-27T07:10:25.754Z,60.67
2023-09-27T07:11:29.377Z,47.00
2023-09-27T07:12:32.622Z,47.33
2023-09-27T07:13:35.601Z,51.67
2023-09-27T07:14:38.859Z,47.33
2023-09-27T07:15:41.196Z,50.00
2023-09-27T07:16:58.524Z,84.50
2023-09-27T07:18:05.259Z,150.83
2023-09-27T07:19:10.330Z,106.00
2023-09-27T07:20:22.358Z,104.50
2023-09-27T07:21:26.423Z,144.67
2023-09-27T07:22:32.392Z,120.67
2023-09-27T07:23:35.624Z,142.83
2023-09-27T07:24:37.836Z,92.33
2023-09-27T07:25:40.102Z,41.00
2023-09-27T07:26:48.342Z,44.33
2023-09-27T07:27:51.268Z,55.33
2023-09-27T07:28:54.573Z,67.17
2023-09-27T07:29:56.903Z,88.17
2023-09-27T07:31:00.255Z,101.67
2023-09-27T07:32:11.462Z,87.67
2023-09-27T07:33:18.765Z,98.50
2023-09-27T07:34:21.534Z,68.83
2023-09-27T07:35:28.679Z,65.67
2023-09-27T07:36:31.061Z,44.17
2023-09-27T07:37:35.834Z,38.33
2023-09-27T07:38:41.079Z,67.17
2023-09-27T07:39:45.052Z,71.50
2023-09-27T07:40:48.430Z,39.67
2023-09-27T07:41:54.041Z,35.50
2023-09-27T07:42:56.259Z,33.00
2023-09-27T07:44:00.151Z,44.00
2023-09-27T07:45:03.108Z,48.33
2023-09-27T07:46:08.527Z,42.33
2023-09-27T07:47:11.572Z,41.33
2023-09-27T07:48:14.969Z,41.17
2023-09-27T07:49:17.173Z,32.00
2023-09-27T07:50:20.902Z,22.83
2023-09-27T07:51:24.234Z,25.33
2023-09-27T07:52:27.435Z,47.83
2023-09-27T07:53:29.798Z,99.33
2023-09-27T07:54:34.574Z,88.50
2023-09-27T07:55:47.672Z,137.17
2023-09-27T07:56:54.543Z,219.67
2023-09-27T07:57:59.404Z,251.00
2023-09-27T07:59:02.644Z,213.33
2023-09-27T08:00:10.803Z,244.17
2023-09-27T08:01:14.150Z,145.33
2023-09-27T08:02:16.352Z,92.50
2023-09-27T08:03:20.949Z,72.33
2023-09-27T08:04:23.480Z,107.50
2023-09-27T08:05:26.908Z,192.17
2023-09-27T08:06:29.207Z,169.50
2023-09-27T08:07:32.405Z,145.83
2023-09-27T08:08:34.628Z,89.83
2023-09-27T08:10:44.747Z,82.33
2023-09-27T08:11:48.221Z,123.83
2023-09-27T08:12:52.111Z,115.00
2023-09-27T08:13:56.034Z,71.83
2023-09-27T08:14:58.316Z,41.33
2023-09-27T08:16:01.435Z,30.00
2023-09-27T08:17:04.258Z,25.50
2023-09-27T08:18:08.165Z,23.50
2023-09-27T08:19:10.595Z,19.17
2023-09-27T08:20:13.449Z,16.33
2023-09-27T08:21:16.769Z,19.67
2023-09-27T08:22:18.958Z,36.00
2023-09-27T08:23:22.174Z,27.67
2023-09-27T08:24:24.601Z,18.17
2023-09-27T08:25:26.832Z,24.67
2023-09-27T08:26:30.474Z,23.50
2023-09-27T08:27:32.903Z,22.83
2023-09-27T08:28:38.829Z,75.67
2023-09-27T08:29:41.141Z,107.83
2023-09-27T08:30:44.484Z,87.83
2023-09-27T08:31:46.773Z,71.00
2023-09-27T08:32:50.331Z,49.17
2023-09-27T08:33:52.626Z,31.33
2023-09-27T08:34:55.961Z,32.17
2023-09-27T08:36:00.511Z,55.50
2023-09-27T08:37:04.779Z,102.17
2023-09-27T08:38:07.266Z,88.33
2023-09-27T08:39:10.829Z,93.67
2023-09-27T08:40:14.668Z,85.83
2023-09-27T08:41:20.097Z,57.17
2023-09-27T08:42:23.526Z,81.17
2023-09-27T08:43:28.194Z,68.33
2023-09-27T08:44:32.510Z,28.33
2023-09-27T08:45:39.523Z,14.83
2023-09-27T08:46:42.210Z,9.50
2023-09-27T08:47:47.540Z,12.00
2023-09-27T08:48:49.922Z,20.67
2023-09-27T08:49:53.943Z,23.00
2023-09-27T08:50:56.653Z,27.33
2023-09-27T08:52:00.187Z,24.50
2023-09-27T08:53:02.568Z,13.00
2023-09-27T08:54:05.711Z,7.83
2023-09-27T08:55:08.743Z,6.50
2023-09-27T08:56:13.285Z,7.00
2023-09-27T08:57:16.067Z,8.67
2023-09-27T08:58:20.314Z,12.00
2023-09-27T08:59:22.885Z,30.50
2023-09-27T09:00:28.353Z,47.33
2023-09-27T09:01:34.270Z,32.33
2023-09-27T09:02:37.919Z,13.67
2023-09-27T09:03:42.370Z,10.33
2023-09-27T09:04:45.708Z,61.00
2023-09-27T09:05:50.168Z,93.50
2023-09-27T09:06:53.720Z,52.00
2023-09-27T09:07:56.869Z,65.67
2023-09-27T09:09:11.642Z,161.67
2023-09-27T09:10:14.845Z,166.83
2023-09-27T09:11:18.907Z,143.33
2023-09-27T09:12:21.122Z,95.17
2023-09-27T09:13:24.466Z,36.67
2023-09-27T09:14:38.838Z,13.83
2023-09-27T09:15:48.328Z,11.33
2023-09-27T09:16:52.505Z,20.83
2023-09-27T09:17:58.987Z,17.83
2023-09-27T09:19:29.290Z,7.67
2023-09-27T09:20:50.631Z,23.00
2023-09-27T09:21:58.330Z,26.50
2023-09-27T09:23:04.920Z,18.50
2023-09-27T09:24:21.563Z,9.83
2023-09-27T09:25:23.989Z,16.50
2023-09-27T09:26:28.910Z,17.83
2023-09-27T09:27:33.716Z,9.17
2023-09-27T09:28:37.675Z,6.50
2023-09-27T09:29:47.212Z,8.67
2023-09-27T09:30:51.787Z,10.33
2023-09-27T09:31:57.875Z,12.83
2023-09-27T09:33:00.242Z,12.00
2023-09-27T09:34:05.573Z,8.67
2023-09-27T09:35:10.325Z,5.67
2023-09-27T09:36:13.545Z,3.17
2023-09-27T09:37:20.119Z,1.67
2023-09-27T09:38:27.771Z,1.00
2023-09-27T09:39:30.053Z,1.00
2023-09-27T09:40:35.287Z,1.83
2023-09-27T09:41:47.611Z,2.00
2023-09-27T09:42:52.406Z,2.17
2023-09-27T09:43:54.874Z,3.00
2023-09-27T09:45:01.470Z,140.50
2023-09-27T09:46:09.351Z,296.83
2023-09-27T09:47:15.532Z,100.50
2023-09-27T09:48:18.765Z,60.67
2023-09-27T09:49:24.119Z,17.67
2023-09-27T09:50:30.736Z,6.33
2023-09-27T09:51:35.573Z,10.83
2023-09-27T09:52:40.258Z,11.67
2023-09-27T09:53:44.155Z,10.00
2023-09-27T09:54:51.232Z,4.67
2023-09-27T09:56:27.878Z,4.50
2023-09-27T09:57:35.075Z,6.67
2023-09-27T09:58:49.920Z,5.17
2023-09-27T10:00:02.304Z,3.17
2023-09-27T10:01:07.661Z,4.00
2023-09-27T10:02:20.707Z,2.67
2023-09-27T10:03:24.554Z,2.00
2023-09-27T10:04:28.041Z,1.00
2023-09-27T10:05:39.520Z,1.00
2023-09-27T10:06:49.220Z,1.67
2023-09-27T10:07:53.704Z,10.50
2023-09-27T10:08:56.035Z,22.00
2023-09-27T10:09:59.381Z,18.33
2023-09-27T10:11:04.969Z,12.83
2023-09-27T10:12:08.415Z,7.17
2023-09-27T10:13:11.596Z,4.17
2023-09-27T10:14:16.816Z,2.50
2023-09-27T10:15:21.756Z,2.00
2023-09-27T10:16:26.782Z,2.00
2023-09-27T10:17:31.259Z,1.33
2023-09-27T10:18:38.947Z,1.00
2023-09-27T10:19:41.254Z,1.67
2023-09-27T10:21:02.482Z,8.83
2023-09-27T10:22:07.360Z,12.17
2023-09-27T10:23:11.943Z,13.17
2023-09-27T10:24:28.299Z,11.83
2023-09-27T10:25:37.011Z,9.67
2023-09-27T10:26:40.636Z,26.00
2023-09-27T10:28:09.577Z,23.00
2023-09-27T10:29:16.883Z,45.33
2023-09-27T10:30:19.351Z,33.50
2023-09-27T10:31:21.606Z,24.83
2023-09-27T10:32:26.476Z,12.33
2023-09-27T10:33:32.573Z,4.83
2023-09-27T10:35:08.974Z,3.17
2023-09-27T10:36:32.319Z,4.50
2023-09-27T10:37:59.991Z,5.83
2023-09-27T10:39:06.384Z,53.50
2023-09-27T10:40:21.988Z,108.67
2023-09-27T10:41:45.989Z,111.17
2023-09-27T10:42:48.658Z,39.00
2023-09-27T10:43:52.802Z,8.50
2023-09-27T10:44:56.919Z,11.33
2023-09-27T10:46:01.296Z,7.83
2023-09-27T10:47:05.542Z,5.17
2023-09-27T10:48:21.168Z,5.00
2023-09-27T10:49:27.812Z,7.33
2023-09-27T10:50:32.294Z,22.67
2023-09-27T10:51:34.843Z,25.00
2023-09-27T10:52:38.190Z,52.50
2023-09-27T10:53:41.359Z,58.83
2023-09-27T10:54:43.777Z,47.83
2023-09-27T10:55:47.156Z,31.83
2023-09-27T10:56:54.046Z,24.83
2023-09-27T10:57:57.916Z,9.83
2023-09-27T10:59:00.193Z,6.00
2023-09-27T11:00:10.737Z,5.00
2023-09-27T11:01:13.174Z,5.50
2023-09-27T11:02:16.343Z,8.33
2023-09-27T11:03:20.439Z,15.83
2023-09-27T11:04:23.487Z,35.50
2023-09-27T11:05:27.188Z,36.00
2023-09-27T11:06:29.938Z,33.33
2023-09-27T11:07:49.262Z,19.50
2023-09-27T11:08:51.651Z,8.50
2023-09-27T11:09:55.188Z,4.17
2023-09-27T11:10:58.710Z,2.00
2023-09-27T11:12:02.091Z,3.67
2023-09-27T11:13:12.061Z,4.67
2023-09-27T11:14:15.680Z,5.00
2023-09-27T11:15:24.135Z,5.00
2023-09-27T11:16:39.010Z,6.00
2023-09-27T11:17:41.331Z,6.00
2023-09-27T11:18:47.112Z,6.33
2023-09-27T11:19:49.804Z,7.00
2023-09-27T11:20:55.408Z,7.00
2023-09-27T11:21:57.640Z,6.33
2023-09-27T11:23:00.963Z,6.00
2023-09-27T11:24:05.431Z,6.00
2023-09-27T11:25:31.990Z,6.00
2023-09-27T11:26:35.912Z,8.00
2023-09-27T11:27:44.098Z,16.83
2023-09-27T11:28:46.457Z,15.00
2023-09-27T11:29:53.051Z,11.67
2023-09-27T11:30:58.202Z,9.67
2023-09-27T11:32:01.730Z,11.17
2023-09-27T11:33:06.739Z,12.67
2023-09-27T11:34:16.372Z,12.00
2023-09-27T11:35:20.114Z,14.67
2023-09-27T11:36:23.349Z,22.50
2023-09-27T11:37:26.352Z,61.00
2023-09-27T11:38:32.254Z,100.00
2023-09-27T11:39:51.328Z,42.33
2023-09-27T11:40:55.180Z,29.33
2023-09-27T11:41:59.113Z,28.50
2023-09-27T11:43:04.111Z,19.17
2023-09-27T11:44:19.202Z,67.50
2023-09-27T11:45:22.409Z,138.50
2023-09-27T11:46:28.385Z,139.50
2023-09-27T11:47:32.778Z,93.67
2023-09-27T11:48:37.720Z,118.33
2023-09-27T11:49:42.534Z,82.50
2023-09-27T11:50:44.931Z,79.83
2023-09-27T11:51:49.124Z,59.17
2023-09-27T11:52:51.626Z,114.00
2023-09-27T11:53:55.499Z,318.00
2023-09-27T11:54:57.954Z,169.83
2023-09-27T11:56:02.313Z,48.33
2023-09-27T11:57:04.522Z,45.00
2023-09-27T11:58:09.576Z,190.33
2023-09-27T11:59:12.006Z,223.17
2023-09-27T12:00:17.155Z,134.50
2023-09-27T12:01:21.047Z,139.00
2023-09-27T12:02:28.194Z,107.67
2023-09-27T12:03:32.915Z,187.50
2023-09-27T12:04:35.560Z,210.00
2023-09-27T12:05:41.216Z,304.83
2023-09-27T12:06:43.794Z,260.50
2023-09-27T12:07:47.137Z,270.83
2023-09-27T12:08:50.034Z,300.67
2023-09-27T12:09:53.281Z,307.50
2023-09-27T12:10:55.544Z,332.00
2023-09-27T12:11:59.208Z,453.50
2023-09-27T12:13:01.893Z,450.33
2023-09-27T12:14:06.822Z,450.17
2023-09-27T12:15:09.645Z,362.00
2023-09-27T12:16:12.949Z,221.33
2023-09-27T12:17:18.769Z,402.33
2023-09-27T12:18:22.795Z,462.00
2023-09-27T12:19:24.947Z,437.83
2023-09-27T12:20:39.756Z,330.67
2023-09-27T12:21:45.321Z,281.33
2023-09-27T12:22:48.531Z,393.17
2023-09-27T12:23:50.795Z,452.50
2023-09-27T12:24:53.975Z,383.00
2023-09-27T12:25:56.984Z,321.00
2023-09-27T12:27:00.811Z,389.67
2023-09-27T12:28:04.672Z,297.33
2023-09-27T12:29:08.603Z,376.17
2023-09-27T12:30:11.495Z,404.00
2023-09-27T12:31:15.696Z,455.83
2023-09-27T12:32:18.986Z,454.00
2023-09-27T12:33:23.035Z,431.67
2023-09-27T12:34:25.569Z,439.00
2023-09-27T12:35:28.876Z,449.50
2023-09-27T12:36:31.007Z,435.00
2023-09-27T12:37:36.624Z,460.50
2023-09-27T12:38:38.922Z,472.67
2023-09-27T12:39:45.210Z,453.17
2023-09-27T12:40:48.020Z,407.50
2023-09-27T12:41:51.334Z,419.33
2023-09-27T12:42:53.643Z,423.83
2023-09-27T12:43:57.573Z,430.83
2023-09-27T12:45:00.199Z,405.17
2023-09-27T12:46:03.747Z,392.50
2023-09-27T12:47:06.063Z,212.00
2023-09-27T12:48:09.369Z,110.67
2023-09-27T12:49:11.700Z,271.50
2023-09-27T12:50:13.908Z,403.50
2023-09-27T12:51:17.385Z,362.83
2023-09-27T12:52:19.614Z,387.17
2023-09-27T12:53:24.200Z,458.00
2023-09-27T12:54:27.272Z,434.17
2023-09-27T12:55:29.426Z,454.50
2023-09-27T12:56:32.672Z,419.17
2023-09-27T12:57:34.931Z,363.67
2023-09-27T12:58:38.065Z,393.33
2023-09-27T12:59:40.304Z,459.33
2023-09-27T13:00:44.197Z,423.50
2023-09-27T13:01:46.504Z,266.67
2023-09-27T13:02:49.900Z,364.17
2023-09-27T13:03:52.539Z,443.17
2023-09-27T13:04:55.801Z,377.50
2023-09-27T13:05:58.898Z,358.67
2023-09-27T13:07:02.115Z,457.50
2023-09-27T13:08:05.482Z,459.50
2023-09-27T13:09:10.969Z,428.17
2023-09-27T13:10:13.493Z,420.83
2023-09-27T13:11:16.663Z,411.00
2023-09-27T13:12:19.102Z,354.00
2023-09-27T13:13:22.514Z,370.17
2023-09-27T13:14:24.758Z,424.00
2023-09-27T13:15:28.045Z,415.17
2023-09-27T13:16:30.326Z,445.83
2023-09-27T13:17:33.668Z,441.50
2023-09-27T13:18:35.890Z,437.50
2023-09-27T13:19:39.060Z,340.00
2023-09-27T13:20:41.384Z,355.83
2023-09-27T13:21:44.744Z,350.33
2023-09-27T13:22:48.513Z,368.17
2023-09-27T13:23:51.706Z,396.17
2023-09-27T13:24:55.146Z,417.00
2023-09-27T13:25:58.437Z,353.17
2023-09-27T13:27:00.751Z,172.17
2023-09-27T13:28:04.255Z,359.00
2023-09-27T13:29:06.681Z,423.33
2023-09-27T13:30:18.651Z,354.50
2023-09-27T13:31:35.873Z,408.33
2023-09-27T13:32:38.169Z,422.67
2023-09-27T13:33:43.016Z,315.67
2023-09-27T13:34:48.998Z,323.00
2023-09-27T13:35:52.897Z,257.00
2023-09-27T13:36:55.606Z,212.83
2023-09-27T13:37:58.799Z,277.00
2023-09-27T13:39:01.064Z,334.33
2023-09-27T13:40:06.497Z,295.17